Main page

Airports :

Waddington, England

RAF Waddington

latitude: 53-10N, longitude: 000-31W, elevation: 68 m

Current weather observation

The report was made 19 minutes ago, at 07:50 UTC
Wind 7 kt from the West/Northwest
Temperature 7°C
Humidity 76%
Pressure 1008 hPa
Visibility 10 km or more
Few clouds at a height of 4300 ft
Broken clouds at a height of 18000 ft

METAR: EGXW 250750Z 29007KT 9999 FEW043 BKN180 07/03 Q1008 BLU NOSIG

Time: 08:09 (08:09 UTC)


The report was made 3 hours and 46 minutes ago, at 04:23 UTC
Forecast valid from 25 at 06 UTC to 25 at 15 UTC
Wind 12 kt from the West/Northwest
Visibility 10 km or more
no clouds below 1500 m and no cumulonimbus

TAF: EGXW 250423Z 2506/2515 30012KT CAVOK


Weather observations and forecasts of more than 4000 airports (METAR and TAF reports).

The available stations are represented by yellow and red dots on the map.

Hover mouse over dot to see the name of the station.

Then click to see weather observations and forecasts.

To change the map : click on the green buttons with a black cross to zoom in, on the green button with a dash to zoom out, or on the green arrows for adjacent maps.